Time;durP1;ratioP1;P1;durP2;ratioP2;P2;SDS_P1;SDS_P2;PMS_P1;PMS_P2;Temp;Humidity;BMP_temperature;BMP_pressure;BME280_temperature;BME280_humidity;BME280_pressure;Samples;Min_cycle;Max_cycle;Signal;HPM_P1;HPM_P2
2022/06/12 00:00:58;;;;;;;2.87;2.07;;;;;;;18.09;57.79;99377.44;5077254;28;39665;-78
2022/06/12 00:03:32;;;;;;;3.37;1.87;;;;;;;18.07;58.22;99377.56;5094269;28;41588;-81
2022/06/12 00:06:01;;;;;;;1.70;1.60;;;;;;;18.07;57.71;99387.44;5092231;28;43469;-81
2022/06/12 00:08:32;;;;;;;1.83;1.63;;;;;;;18.03;58.78;99376.13;5077495;28;42325;-77
2022/06/12 00:11:02;;;;;;;1.63;1.53;;;;;;;18.05;58.67;99386.72;5091949;28;39880;-79
2022/06/12 00:13:33;;;;;;;2.20;1.97;;;;;;;18.02;58.77;99382.47;5077427;28;40915;-78
2022/06/12 00:16:02;;;;;;;1.90;1.80;;;;;;;17.99;58.67;99393.44;5077669;28;41574;-77
2022/06/12 00:18:31;;;;;;;2.57;2.20;;;;;;;17.95;58.66;99383.97;5077092;28;42250;-80
2022/06/12 00:23:45;;;;;;;1.67;1.57;;;;;;;17.87;58.67;99389.13;5074185;28;40171;-79
2022/06/12 00:26:17;;;;;;;2.40;1.50;;;;;;;17.83;58.71;99387.66;5077168;28;41348;-77
2022/06/12 00:28:44;;;;;;;1.63;1.50;;;;;;;17.79;58.63;99387.09;5093141;28;42141;-78
2022/06/12 00:31:12;;;;;;;2.00;1.80;;;;;;;17.76;58.62;99390.03;5094512;28;39973;-78
2022/06/12 00:33:41;;;;;;;2.57;1.67;;;;;;;17.72;59.05;99385.03;5094306;28;41940;-81
2022/06/12 00:36:09;;;;;;;1.60;1.50;;;;;;;17.69;59.07;99386.13;5093283;28;42725;-76
2022/06/12 00:38:39;;;;;;;2.70;1.83;;;;;;;17.67;59.18;99381.91;5093173;28;42330;-81
2022/06/12 00:41:07;;;;;;;3.00;2.13;;;;;;;17.65;58.75;99381.19;5093342;28;40871;-76
2022/06/12 00:43:35;;;;;;;1.70;1.60;;;;;;;17.49;59.05;99358.31;5094375;28;42510;-76
2022/06/12 00:46:03;;;;;;;1.90;1.80;;;;;;;17.56;59.46;99375.56;5076097;28;41736;-78
2022/06/12 00:48:34;;;;;;;1.80;1.63;;;;;;;17.56;59.24;99378.25;5092161;28;41256;-75
2022/06/12 00:51:07;;;;;;;1.87;1.77;;;;;;;17.51;59.19;99372.44;5092935;28;40138;-82
2022/06/12 00:53:39;;;;;;;1.57;1.47;;;;;;;17.48;59.09;99377.19;5076089;28;40682;-78
2022/06/12 00:56:15;;;;;;;2.00;1.87;;;;;;;17.43;59.63;99369.50;5090132;28;42679;-77
2022/06/12 00:58:46;;;;;;;1.50;1.40;;;;;;;17.36;60.06;99371.00;5091432;28;42777;-78
2022/06/12 01:01:20;;;;;;;2.17;1.90;;;;;;;17.32;60.08;99376.72;5091278;28;39827;-76
2022/06/12 01:06:35;;;;;;;1.50;1.40;;;;;;;17.22;60.13;99372.13;5093926;28;42684;-79
2022/06/12 01:09:11;;;;;;;2.53;2.13;;;;;;;17.17;60.68;99369.00;5093634;28;43193;-78
2022/06/12 01:11:42;;;;;;;1.90;1.80;;;;;;;17.13;60.87;99359.50;5090907;28;40190;-75
2022/06/12 01:14:13;;;;;;;1.70;1.60;;;;;;;17.07;60.84;99367.19;5075414;28;40751;-73
2022/06/12 01:16:45;;;;;;;2.20;1.90;;;;;;;17.04;60.96;99370.13;5092679;28;43519;-77
2022/06/12 01:19:21;;;;;;;2.20;1.80;;;;;;;16.94;61.16;99361.13;5092873;28;42464;-79
2022/06/12 01:22:17;;;;;;;2.13;1.93;;;;;;;16.95;61.24;99371.69;5092884;28;39313;-76
2022/06/12 01:25:09;;;;;;;2.53;1.80;;;;;;;16.91;61.02;99372.09;5092107;28;41550;-76
2022/06/12 01:28:16;;;;;;;1.50;1.40;;;;;;;16.86;61.32;99369.75;5091979;28;41796;-75
2022/06/12 01:30:57;;;;;;;1.57;1.47;;;;;;;16.80;61.27;99376.47;5089271;28;42398;-75
2022/06/12 01:33:32;;;;;;;2.23;1.80;;;;;;;16.77;61.31;99376.72;5090845;28;38980;-78
2022/06/12 01:36:07;;;;;;;1.80;1.70;;;;;;;16.73;61.37;99375.25;5090560;28;41640;-74
2022/06/12 01:38:43;;;;;;;1.53;1.43;;;;;;;16.69;61.54;99379.13;5074901;28;41895;-76
2022/06/12 01:41:19;;;;;;;2.80;1.90;;;;;;;16.67;61.67;99370.41;5075300;28;40909;-81
2022/06/12 01:43:51;;;;;;;1.60;1.50;;;;;;;16.62;61.69;99371.69;5090650;28;40694;-74
2022/06/12 01:46:23;;;;;;;1.70;1.60;;;;;;;16.59;61.96;99378.13;5089287;28;42750;-75
2022/06/12 01:48:59;;;;;;;1.80;1.63;;;;;;;16.41;61.84;99353.69;5074682;28;41229;-74
2022/06/12 01:51:34;;;;;;;1.73;1.63;;;;;;;16.45;62.12;99364.97;5092352;28;41747;-80
2022/06/12 01:54:07;;;;;;;2.37;1.70;;;;;;;16.47;62.22;99366.56;5092330;28;40629;-79
2022/06/12 01:56:41;;;;;;;2.27;1.60;;;;;;;16.46;62.23;99366.69;5088929;28;41530;-78
2022/06/12 01:59:16;;;;;;;2.30;2.10;;;;;;;16.43;62.42;99364.28;5091756;28;41741;-79
2022/06/12 02:01:54;;;;;;;2.33;2.13;;;;;;;16.45;62.59;99359.63;5089101;28;42140;-80
2022/06/12 02:04:30;;;;;;;2.33;2.13;;;;;;;16.44;62.78;99357.97;5075077;28;38860;-84
2022/06/12 02:07:04;;;;;;;2.17;1.97;;;;;;;16.44;62.96;99363.31;5091761;28;40428;-81
2022/06/12 02:09:37;;;;;;;1.93;1.83;;;;;;;16.42;63.74;99354.56;5075030;28;43274;-74
2022/06/12 02:15:03;;;;;;;2.27;2.07;;;;;;;16.35;63.76;99355.97;5091587;28;40289;-79
2022/06/12 02:17:36;;;;;;;1.57;1.47;;;;;;;16.32;63.60;99357.06;5089552;28;42820;-80
2022/06/12 02:20:07;;;;;;;2.13;1.70;;;;;;;16.30;63.70;99355.50;5074665;28;42725;-76
2022/06/12 02:22:38;;;;;;;2.07;1.90;;;;;;;16.31;63.55;99357.22;5088176;28;43133;-77
2022/06/12 02:25:11;;;;;;;2.33;2.03;;;;;;;16.30;64.39;99353.69;5089099;28;40024;-77
2022/06/12 02:27:43;;;;;;;2.30;2.10;;;;;;;16.31;64.14;99357.22;5090928;28;40491;-75
2022/06/12 02:30:16;;;;;;;2.57;1.97;;;;;;;16.29;64.14;99352.00;5091274;28;41495;-79
2022/06/12 02:32:50;;;;;;;2.30;2.10;;;;;;;16.28;64.27;99366.31;5074160;28;42582;-78
2022/06/12 02:35:21;;;;;;;2.00;1.83;;;;;;;16.23;64.52;99348.94;5091643;28;38879;-75
2022/06/12 02:37:54;;;;;;;2.07;1.83;;;;;;;16.22;64.47;99361.44;5089547;28;42065;-79
2022/06/12 02:40:26;;;;;;;2.30;2.10;;;;;;;16.19;64.48;99360.84;5089457;28;42866;-79
2022/06/12 02:42:57;;;;;;;1.73;1.63;;;;;;;16.13;64.74;99360.34;5074338;28;41129;-81
2022/06/12 02:45:29;;;;;;;2.00;1.80;;;;;;;16.06;64.38;99352.91;5076939;28;40490;-77
2022/06/12 02:48:00;;;;;;;2.20;2.00;;;;;;;16.09;64.44;99358.00;5091264;28;41184;-79
2022/06/12 02:50:32;;;;;;;1.87;1.77;;;;;;;16.05;64.63;99359.22;5091258;28;41912;-83
2022/06/12 02:53:11;;;;;;;2.00;1.80;;;;;;;16.01;65.25;99355.09;5088508;28;42561;-79
2022/06/12 02:55:44;;;;;;;1.73;1.63;;;;;;;15.96;65.17;99352.75;5075173;28;38837;-79
2022/06/12 02:58:19;;;;;;;2.17;1.80;;;;;;;15.92;64.73;99356.66;5090227;28;41841;-78
2022/06/12 03:00:52;;;;;;;2.37;2.17;;;;;;;15.89;64.89;99356.88;5075022;28;41768;-83
2022/06/12 03:03:26;;;;;;;2.33;2.10;;;;;;;15.86;66.09;99348.22;5075046;28;42141;-78
2022/06/12 03:05:58;;;;;;;3.17;1.90;;;;;;;15.87;66.73;99353.47;5091841;28;38867;-82
2022/06/12 03:08:29;;;;;;;2.80;2.40;;;;;;;15.88;66.41;99344.47;5075296;28;40891;-79
2022/06/12 03:11:01;;;;;;;2.50;2.30;;;;;;;15.85;66.75;99347.38;5075367;28;41584;-84
2022/06/12 03:13:31;;;;;;;2.53;2.20;;;;;;;15.90;66.08;99355.91;5075128;28;42265;-79
2022/06/12 03:16:01;;;;;;;2.07;1.93;;;;;;;15.90;66.30;99363.94;5092102;28;42058;-82
2022/06/12 03:18:34;;;;;;;3.43;2.20;;;;;;;15.88;66.75;99367.69;5075388;28;41388;-81
2022/06/12 03:21:09;;;;;;;2.57;2.37;;;;;;;15.79;67.03;99362.06;5075725;28;41776;-77
2022/06/12 03:23:53;;;;;;;2.40;2.20;;;;;;;15.77;66.60;99379.19;5089098;28;43233;-81
2022/06/12 03:26:27;;;;;;;3.33;2.00;;;;;;;15.68;66.21;99369.19;5074241;28;40077;-76
2022/06/12 03:29:04;;;;;;;2.33;2.00;;;;;;;15.71;65.75;99385.81;5073706;28;41066;-78
2022/06/12 03:31:36;;;;;;;1.77;1.67;;;;;;;15.68;65.99;99390.56;5087711;28;42722;-77
2022/06/12 03:34:16;;;;;;;2.07;1.97;;;;;;;15.65;65.54;99398.78;5089608;28;42132;-76
2022/06/12 03:36:51;;;;;;;2.13;1.80;;;;;;;15.62;66.03;99394.53;5073658;28;39870;-77
2022/06/12 03:39:25;;;;;;;2.03;1.87;;;;;;;15.62;65.94;99396.34;5090524;28;42055;-76
2022/06/12 03:42:00;;;;;;;2.53;1.83;;;;;;;15.63;65.42;99398.03;5088604;28;43852;-77
2022/06/12 03:44:35;;;;;;;1.73;1.63;;;;;;;15.65;65.71;99401.47;5090419;28;41012;-75
2022/06/12 03:47:17;;;;;;;2.10;1.90;;;;;;;15.59;65.61;99385.88;5088771;28;39636;-79
2022/06/12 03:49:53;;;;;;;2.00;1.80;;;;;;;15.70;65.39;99399.31;5073419;28;42088;-81
2022/06/12 03:52:26;;;;;;;2.10;1.77;;;;;;;15.76;65.44;99409.50;5090026;28;42658;-78
2022/06/12 03:55:00;;;;;;;2.17;1.97;;;;;;;15.73;65.60;99399.06;5090553;28;42938;-77
2022/06/12 03:57:51;;;;;;;2.53;2.33;;;;;;;15.83;65.40;99400.06;5076340;28;38735;-79
2022/06/12 04:00:24;;;;;;;1.90;1.80;;;;;;;15.94;65.44;99410.81;5094083;28;41635;-79
2022/06/12 04:02:56;;;;;;;2.37;2.17;;;;;;;16.00;65.64;99410.34;5076867;28;42917;-80
2022/06/12 04:05:31;;;;;;;2.20;1.80;;;;;;;16.04;65.63;99398.47;5076814;28;41803;-81
2022/06/12 04:08:02;;;;;;;2.10;2.00;;;;;;;16.11;65.11;99399.69;5091305;28;40824;-77
2022/06/12 04:10:35;;;;;;;2.00;1.90;;;;;;;16.20;65.16;99391.91;5076892;28;41308;-81
2022/06/12 04:13:06;;;;;;;2.00;1.90;;;;;;;16.29;65.29;99397.44;5092370;28;43700;-80
2022/06/12 04:15:39;;;;;;;2.33;1.90;;;;;;;16.37;65.17;99399.50;5093668;28;42275;-80
2022/06/12 04:18:07;;;;;;;2.23;2.10;;;;;;;16.38;65.43;99385.16;5076658;28;39106;-74
2022/06/12 04:20:47;;;;;;;2.67;1.80;;;;;;;16.55;65.65;99391.88;5093517;28;40672;-81
2022/06/12 04:23:22;;;;;;;2.03;1.83;;;;;;;16.65;65.96;99387.53;5075975;28;41766;-76
2022/06/12 04:25:54;;;;;;;2.03;1.93;;;;;;;16.74;65.56;99394.81;5076585;28;40905;-78
2022/06/12 04:28:28;;;;;;;3.03;2.30;;;;;;;16.82;65.47;99395.91;5093196;28;39048;-78
2022/06/12 04:30:57;;;;;;;2.90;2.40;;;;;;;16.88;65.15;99400.78;5093617;28;40642;-85
2022/06/12 04:33:33;;;;;;;2.53;2.20;;;;;;;16.93;65.32;99387.03;5093978;28;42711;-77
2022/06/12 04:36:05;;;;;;;3.40;2.13;;;;;;;17.05;65.34;99398.59;5090225;28;42223;-76
2022/06/12 04:38:35;;;;;;;2.63;2.20;;;;;;;17.14;64.98;99403.19;5076139;28;40090;-80
2022/06/12 04:41:03;;;;;;;2.57;2.37;;;;;;;17.23;64.72;99405.13;5093396;28;41877;-77
2022/06/12 04:43:31;;;;;;;2.40;2.20;;;;;;;17.31;64.71;99410.69;5092928;28;43674;-79
2022/06/12 04:45:59;;;;;;;2.13;2.03;;;;;;;17.41;64.74;99403.63;5076399;28;41433;-79
2022/06/12 04:48:30;;;;;;;2.00;1.83;;;;;;;17.51;64.60;99404.56;5075284;28;40035;-78
2022/06/12 04:50:58;;;;;;;2.40;2.20;;;;;;;17.63;64.59;99396.50;5076337;28;41804;-77
2022/06/12 04:53:27;;;;;;;2.67;2.47;;;;;;;17.73;64.40;99408.19;5093497;28;42638;-78
2022/06/12 04:55:55;;;;;;;3.50;3.20;;;;;;;17.84;64.52;99400.09;5094209;28;43121;-75
2022/06/12 04:58:23;;;;;;;2.40;2.20;;;;;;;17.96;64.58;99404.41;5092798;28;40080;-78
2022/06/12 05:00:51;;;;;;;2.37;2.17;;;;;;;18.07;64.08;99399.00;5076280;28;40353;-79
2022/06/12 05:03:18;;;;;;;2.30;2.20;;;;;;;18.20;63.67;99401.50;5092401;28;41794;-78
2022/06/12 05:05:47;;;;;;;2.33;2.13;;;;;;;18.32;63.38;99400.44;5076360;28;41577;-80
2022/06/12 05:08:15;;;;;;;2.20;2.00;;;;;;;18.44;63.52;99406.56;5075662;28;38849;-77
2022/06/12 05:10:46;;;;;;;2.60;2.40;;;;;;;18.58;63.14;99412.50;5075976;28;41665;-78
2022/06/12 05:13:14;;;;;;;2.50;2.30;;;;;;;18.69;62.80;99408.88;5075678;28;42716;-81
2022/06/12 05:15:42;;;;;;;2.47;2.17;;;;;;;18.80;62.77;99421.34;5092856;28;41527;-76
2022/06/12 05:18:12;;;;;;;2.60;2.03;;;;;;;18.91;62.71;99414.09;5093259;28;39966;-79
2022/06/12 05:20:40;;;;;;;2.37;2.17;;;;;;;19.00;62.50;99418.63;5093050;28;44010;-78
2022/06/12 05:23:08;;;;;;;4.13;3.10;;;;;;;19.09;62.52;99421.47;5092234;28;41825;-84
2022/06/12 05:25:37;;;;;;;3.27;2.80;;;;;;;19.20;62.37;99418.69;5093479;28;42300;-77
2022/06/12 05:28:07;;;;;;;2.13;2.00;;;;;;;19.31;62.20;99416.75;5075572;28;38814;-78
2022/06/12 05:30:36;;;;;;;2.10;1.90;;;;;;;19.43;61.78;99417.47;5092421;28;41681;-82
2022/06/12 05:33:04;;;;;;;3.27;2.80;;;;;;;19.45;61.56;99402.06;5093011;28;42880;-79
2022/06/12 05:35:36;;;;;;;3.40;3.10;;;;;;;19.60;61.29;99406.09;5075386;28;41315;-76
2022/06/12 05:38:06;;;;;;;3.00;2.60;;;;;;;19.74;61.62;99415.59;5091000;28;39855;-77
2022/06/12 05:40:36;;;;;;;2.87;2.33;;;;;;;19.85;61.26;99426.19;5093428;28;42415;-80
2022/06/12 05:43:07;;;;;;;4.43;3.07;;;;;;;19.93;60.96;99410.22;5075432;28;42021;-75
2022/06/12 05:45:35;;;;;;;2.97;2.67;;;;;;;20.11;61.30;99420.25;5092484;28;43233;-75
2022/06/12 05:48:09;;;;;;;2.70;2.50;;;;;;;20.14;61.04;99398.47;5091482;28;40681;-79
2022/06/12 05:50:45;;;;;;;2.30;2.10;;;;;;;20.39;60.54;99420.28;5091696;28;40367;-86
2022/06/12 05:53:14;;;;;;;2.80;2.60;;;;;;;20.70;59.81;99426.28;5090017;28;42468;-78
2022/06/12 05:55:42;;;;;;;2.80;2.60;;;;;;;20.93;59.52;99417.84;5092008;28;42218;-80
2022/06/12 05:58:12;;;;;;;2.60;2.40;;;;;;;21.05;59.08;99422.88;5091746;28;40306;-77
2022/06/12 06:00:41;;;;;;;2.50;2.30;;;;;;;21.15;59.05;99418.28;5092925;28;42427;-81
2022/06/12 06:03:09;;;;;;;2.63;2.43;;;;;;;21.24;58.77;99421.13;5091571;28;42009;-79
2022/06/12 06:05:37;;;;;;;2.67;2.47;;;;;;;21.33;58.42;99422.94;5091910;28;42028;-77
2022/06/12 06:08:05;;;;;;;2.63;2.43;;;;;;;21.39;58.32;99428.53;5091889;28;40875;-79
2022/06/12 06:10:33;;;;;;;2.73;2.30;;;;;;;21.48;57.76;99419.56;5074858;28;41267;-77
2022/06/12 06:13:02;;;;;;;2.77;2.57;;;;;;;21.59;57.53;99418.50;5091713;28;42932;-77
2022/06/12 06:15:32;;;;;;;2.20;2.10;;;;;;;21.70;58.21;99418.28;5093099;28;42125;-76
2022/06/12 06:18:01;;;;;;;2.60;2.17;;;;;;;21.83;57.71;99418.75;5074528;28;38953;-80
2022/06/12 06:20:31;;;;;;;2.20;2.00;;;;;;;21.97;57.25;99424.63;5090448;28;41249;-78
2022/06/12 06:22:59;;;;;;;2.10;2.00;;;;;;;22.11;57.15;99426.81;5091600;28;42433;-77
2022/06/12 06:25:29;;;;;;;2.57;2.00;;;;;;;22.22;56.58;99429.25;5092350;28;43241;-82
2022/06/12 06:27:58;;;;;;;2.43;2.23;;;;;;;22.27;56.27;99413.44;5091057;28;40082;-80
2022/06/12 06:30:26;;;;;;;2.23;1.70;;;;;;;22.45;55.74;99430.47;5074284;28;41833;-81
2022/06/12 06:32:56;;;;;;;3.37;2.10;;;;;;;22.61;55.47;99434.28;5073969;28;41826;-83
2022/06/12 06:35:25;;;;;;;2.90;2.10;;;;;;;22.76;55.29;99430.00;5091392;28;43748;-79
2022/06/12 06:37:53;;;;;;;3.00;2.20;;;;;;;22.99;54.55;99433.88;5091380;28;40870;-83
2022/06/12 06:40:27;;;;;;;2.00;1.87;;;;;;;23.21;54.24;99427.91;5091362;28;41879;-80
2022/06/12 06:42:56;;;;;;;2.20;1.83;;;;;;;23.45;53.08;99445.22;5074433;28;41649;-78
2022/06/12 06:48:13;;;;;;;2.30;2.10;;;;;;;23.81;53.02;99440.47;5088678;28;39753;-79
2022/06/12 06:50:42;;;;;;;1.87;1.77;;;;;;;24.07;52.77;99443.03;5091478;28;41636;-85
2022/06/12 06:53:11;;;;;;;2.30;2.10;;;;;;;24.25;52.51;99444.59;5090659;28;42459;-85
2022/06/12 06:55:40;;;;;;;2.20;2.00;;;;;;;24.28;52.08;99430.72;5092054;28;42330;-82
2022/06/12 06:58:09;;;;;;;2.43;2.20;;;;;;;24.52;51.77;99451.53;5091267;28;40862;-80
2022/06/12 07:00:38;;;;;;;2.20;2.00;;;;;;;24.72;51.06;99446.63;5091108;28;40768;-82
2022/06/12 07:03:07;;;;;;;2.40;2.20;;;;;;;25.16;50.46;99455.16;5091938;28;43453;-82
2022/06/12 07:05:38;;;;;;;2.13;1.93;;;;;;;25.84;48.92;99457.25;5074302;28;40876;-88
2022/06/12 07:08:07;;;;;;;2.20;1.77;;;;;;;26.16;47.93;99458.06;5091197;28;38960;-78
2022/06/12 07:10:36;;;;;;;3.13;2.00;;;;;;;26.39;47.74;99465.22;5090722;28;40082;-79
2022/06/12 07:13:04;;;;;;;2.50;1.87;;;;;;;26.50;47.60;99454.94;5091834;28;41202;-77
2022/06/12 07:15:34;;;;;;;2.10;1.90;;;;;;;26.50;47.86;99450.34;5100023;28;43472;-79
2022/06/12 07:18:04;;;;;;;2.30;2.10;;;;;;;26.63;47.82;99447.00;5082217;28;39129;-76
2022/06/12 07:20:36;;;;;;;2.40;1.80;;;;;;;26.55;47.72;99431.63;5099825;28;42953;-76
2022/06/12 07:23:08;;;;;;;2.60;1.90;;;;;;;26.73;46.89;99456.59;5099321;28;43933;-78
2022/06/12 07:25:41;;;;;;;3.03;2.30;;;;;;;26.92;45.92;99454.38;5097502;28;42470;-76
2022/06/12 07:28:09;;;;;;;3.70;2.20;;;;;;;27.35;45.07;99469.88;5100202;28;38402;-78
2022/06/12 07:30:37;;;;;;;3.47;2.10;;;;;;;27.96;44.26;99434.22;5100065;28;41516;-79
2022/06/12 07:33:05;;;;;;;2.30;1.80;;;;;;;29.55;41.42;99489.06;5094070;28;42993;-80
2022/06/12 07:35:34;;;;;;;2.07;1.90;;;;;;;30.53;39.68;99495.91;5095366;28;42536;-79
2022/06/12 07:38:05;;;;;;;1.90;1.80;;;;;;;31.11;38.36;99487.94;5077018;28;39774;-83
2022/06/12 07:40:39;;;;;;;2.00;1.87;;;;;;;31.87;36.85;99504.59;5076997;28;40874;-82
2022/06/12 07:43:08;;;;;;;2.37;2.17;;;;;;;32.85;35.23;99516.91;5091620;28;42788;-80
2022/06/12 07:45:37;;;;;;;2.03;1.80;;;;;;;33.40;34.37;99475.84;5077210;28;41489;-85
2022/06/12 07:48:05;;;;;;;2.07;1.97;;;;;;;33.79;34.76;99508.38;5076537;28;38996;-82
2022/06/12 07:50:33;;;;;;;1.77;1.67;;;;;;;33.64;33.93;99515.28;5094284;28;40658;-82
2022/06/12 07:53:01;;;;;;;2.80;2.07;;;;;;;33.74;33.77;99515.63;5093860;28;42873;-82
2022/06/12 07:55:31;;;;;;;1.70;1.60;;;;;;;33.88;33.80;99514.38;5093942;28;43246;-80
2022/06/12 07:57:59;;;;;;;2.50;2.30;;;;;;;34.10;33.04;99509.25;5092868;28;38971;-81
2022/06/12 08:00:28;;;;;;;2.53;2.33;;;;;;;35.08;32.13;99506.09;5076869;28;41775;-86
2022/06/12 08:02:56;;;;;;;1.90;1.80;;;;;;;36.10;30.33;99534.03;5093470;28;42692;-78
2022/06/12 08:05:24;;;;;;;1.83;1.73;;;;;;;36.80;29.32;99528.22;5093771;28;43199;-83
2022/06/12 08:07:52;;;;;;;1.75;1.65;;;;;;;38.14;27.73;99530.78;5093475;28;39233;-83
2022/06/12 08:10:19;;;;;;;1.88;1.77;;;;;;;39.58;26.68;99518.78;5093597;28;41050;-80
2022/06/12 08:12:49;;;;;;;1.80;1.70;;;;;;;41.16;24.62;99545.94;5093464;28;42581;-82
2022/06/12 08:15:21;;;;;;;1.58;1.48;;;;;;;42.45;23.31;99544.13;5093660;28;41951;-80
2022/06/12 08:17:50;;;;;;;2.83;1.40;;;;;;;43.52;22.36;99548.88;5076462;28;39126;-83
2022/06/12 08:20:28;;;;;;;1.05;0.98;;;;;;;44.27;20.06;99558.28;5093422;28;41037;-83
2022/06/12 08:23:02;;;;;;;0.85;0.85;;;;;;;44.88;19.43;99559.44;5076505;28;41846;-80
2022/06/12 08:25:32;;;;;;;1.27;1.17;;;;;;;44.92;19.69;99550.09;5076738;28;41209;-81
2022/06/12 08:28:01;;;;;;;1.23;1.13;;;;;;;44.68;19.56;99550.19;5093034;28;39667;-83
2022/06/12 08:30:30;;;;;;;1.00;1.00;;;;;;;44.50;19.50;99536.25;5093470;28;42143;-80
2022/06/12 08:32:59;;;;;;;1.00;1.00;;;;;;;44.07;19.87;99533.47;5094247;28;43505;-85
2022/06/12 08:35:30;;;;;;;0.82;0.82;;;;;;;43.56;19.16;99538.75;5094617;28;42294;-82
2022/06/12 08:37:58;;;;;;;2.35;1.10;;;;;;;43.52;19.90;99535.75;5092948;28;39165;-81
2022/06/12 08:40:35;;;;;;;1.17;1.15;;;;;;;43.81;19.61;99540.47;5094441;28;41874;-82
2022/06/12 08:43:12;;;;;;;0.98;0.98;;;;;;;44.19;19.48;99528.25;5091245;28;42929;-80
2022/06/12 08:45:45;;;;;;;1.15;1.10;;;;;;;44.94;17.90;99542.25;5090805;28;42203;-83
2022/06/12 08:48:20;;;;;;;1.33;1.10;;;;;;;45.20;17.70;99534.28;5090073;28;40800;-81
2022/06/12 08:50:53;;;;;;;1.52;1.30;;;;;;;45.12;18.13;99537.75;5076156;28;40819;-85
2022/06/12 08:53:30;;;;;;;1.10;1.00;;;;;;;44.42;18.60;99534.09;5075806;28;42919;-80
2022/06/12 08:56:04;;;;;;;1.23;1.10;;;;;;;43.79;19.11;99525.97;5092880;28;41194;-80
2022/06/12 08:58:39;;;;;;;1.30;1.20;;;;;;;43.83;19.13;99522.28;5075989;28;38930;-85
2022/06/12 09:01:07;;;;;;;1.08;1.08;;;;;;;44.22;18.87;99516.50;5075598;28;40668;-80
2022/06/12 09:03:39;;;;;;;1.20;1.10;;;;;;;44.55;18.93;99514.63;5075602;28;43950;-80
2022/06/12 09:06:14;;;;;;;1.00;1.00;;;;;;;44.51;18.90;99510.78;5092665;28;42345;-80
2022/06/12 09:08:48;;;;;;;1.38;1.10;;;;;;;44.07;19.37;99499.94;5092237;28;39958;-83
2022/06/12 09:11:19;;;;;;;1.15;1.02;;;;;;;43.96;19.50;99509.56;5090662;28;41712;-82
2022/06/12 09:13:58;;;;;;;1.65;1.33;;;;;;;44.00;18.91;99488.34;5092829;28;41950;-83
2022/06/12 09:16:34;;;;;;;1.02;1.00;;;;;;;44.18;18.79;99492.25;5075643;28;41266;-82
2022/06/12 09:19:10;;;;;;;1.42;1.15;;;;;;;45.73;17.82;99497.47;5092708;28;40048;-78
2022/06/12 09:21:53;;;;;;;1.30;1.20;;;;;;;46.02;16.78;99505.53;5092392;28;41195;-78
2022/06/12 09:24:30;;;;;;;0.90;0.90;;;;;;;45.90;17.22;99492.06;5091890;28;43786;-80
2022/06/12 09:27:06;;;;;;;1.00;1.00;;;;;;;44.39;19.01;99485.25;5092268;28;41126;-78
2022/06/12 09:29:47;;;;;;;1.42;1.20;;;;;;;43.14;20.27;99478.13;5093196;28;40016;-80
2022/06/12 09:32:26;;;;;;;1.52;1.42;;;;;;;42.09;21.00;99465.53;5089324;28;42757;-79
2022/06/12 09:35:04;;;;;;;1.48;1.13;;;;;;;42.31;20.70;99471.50;5092198;28;42517;-78
2022/06/12 09:40:38;;;;;;;1.33;1.23;;;;;;;45.13;17.68;99491.03;5075111;28;38956;-80
2022/06/12 09:43:16;;;;;;;1.25;0.90;;;;;;;46.47;17.16;99481.25;5091962;28;40620;-81
2022/06/12 09:45:54;;;;;;;1.42;1.08;;;;;;;46.92;17.39;99473.69;5089428;28;43769;-82
2022/06/12 09:48:26;;;;;;;1.20;1.20;;;;;;;45.55;18.00;99474.03;5089419;28;42155;-79
2022/06/12 09:51:09;;;;;;;1.10;1.00;;;;;;;45.84;17.84;99473.69;5075337;28;38821;-82
2022/06/12 09:54:05;;;;;;;1.05;1.05;;;;;;;46.54;16.98;99478.00;5090605;28;41983;-80
2022/06/12 09:56:40;;;;;;;1.00;0.90;;;;;;;45.77;17.78;99470.47;5092007;28;42717;-82
2022/06/12 09:59:14;;;;;;;1.45;1.08;;;;;;;44.34;18.54;99461.00;5091100;28;42577;-81
2022/06/12 10:01:48;;;;;;;1.65;1.33;;;;;;;43.46;18.86;99452.41;5088658;28;39939;-78
2022/06/12 10:04:22;;;;;;;1.27;1.17;;;;;;;42.36;20.47;99414.13;5090926;28;41910;-77
2022/06/12 10:06:57;;;;;;;1.10;1.08;;;;;;;42.74;20.58;99438.34;5089804;28;42818;-82
2022/06/12 10:09:32;;;;;;;1.50;1.27;;;;;;;42.04;20.37;99445.28;5092008;28;41065;-77
2022/06/12 10:12:04;;;;;;;1.40;1.30;;;;;;;40.65;22.12;99434.75;5088962;28;40853;-76
2022/06/12 10:14:37;;;;;;;1.58;1.45;;;;;;;39.96;22.50;99426.88;5092510;28;41899;-76
2022/06/12 10:17:11;;;;;;;1.85;1.60;;;;;;;39.66;22.74;99421.22;5091363;28;41725;-81
2022/06/12 10:19:44;;;;;;;2.00;1.80;;;;;;;40.11;22.86;99413.03;5092648;28;43172;-78
2022/06/12 10:22:18;;;;;;;1.92;1.65;;;;;;;40.17;23.51;99411.94;5091545;28;40074;-76
2022/06/12 10:24:46;;;;;;;2.25;1.52;;;;;;;39.88;23.56;99402.44;5091231;28;40667;-78
2022/06/12 10:27:16;;;;;;;1.50;1.40;;;;;;;39.54;23.25;99403.97;5091476;28;43700;-79
2022/06/12 10:29:48;;;;;;;1.70;1.60;;;;;;;39.44;23.45;99397.28;5092713;28;42348;-77
2022/06/12 10:32:19;;;;;;;1.67;1.30;;;;;;;39.47;23.10;99410.59;5088454;28;40234;-80
2022/06/12 10:34:47;;;;;;;1.27;1.23;;;;;;;39.76;23.59;99404.59;5074570;28;40434;-81
2022/06/12 10:37:19;;;;;;;1.65;1.40;;;;;;;40.48;22.77;99398.94;5090987;28;42000;-83
2022/06/12 10:40:00;;;;;;;1.70;1.30;;;;;;;40.70;22.00;99398.63;5092198;28;41975;-79
2022/06/12 10:42:45;;;;;;;1.70;1.60;;;;;;;40.41;23.08;99397.56;5089460;28;40633;-77
2022/06/12 10:45:22;;;;;;;2.38;1.75;;;;;;;40.13;23.25;99399.72;5091186;28;40419;-82
2022/06/12 10:47:54;;;;;;;1.50;1.40;;;;;;;39.68;24.10;99392.13;5087973;28;42752;-80
2022/06/12 10:50:26;;;;;;;1.35;1.20;;;;;;;38.98;23.93;99381.50;5089157;28;42208;-82
2022/06/12 10:53:00;;;;;;;1.98;1.40;;;;;;;38.80;24.46;99374.47;5074187;28;39410;-81
2022/06/12 10:55:42;;;;;;;1.30;1.20;;;;;;;38.68;24.01;99376.59;5088268;28;41817;-78
2022/06/12 10:58:25;;;;;;;1.92;1.50;;;;;;;38.43;23.83;99360.59;5090975;28;42507;-81
2022/06/12 11:00:55;;;;;;;1.20;1.10;;;;;;;38.39;25.03;99351.16;5089205;28;42208;-78
2022/06/12 11:03:36;;;;;;;1.48;1.38;;;;;;;38.00;24.75;99354.09;5090678;28;40138;-79
2022/06/12 11:06:12;;;;;;;1.90;1.33;;;;;;;37.82;24.97;99346.19;5093594;28;40954;-79
2022/06/12 11:09:08;;;;;;;1.83;1.30;;;;;;;37.87;25.37;99354.53;5077272;28;42714;-78
2022/06/12 11:11:47;;;;;;;1.80;1.70;;;;;;;37.90;24.94;99351.25;5095038;28;42344;-78
2022/06/12 11:14:38;;;;;;;2.07;1.40;;;;;;;37.91;25.75;99338.25;5093759;28;39870;-81
2022/06/12 11:17:20;;;;;;;1.20;1.10;;;;;;;38.07;25.55;99338.16;5092403;28;42939;-78
2022/06/12 11:20:04;;;;;;;1.53;1.43;;;;;;;38.22;25.08;99328.31;5077349;28;41801;-79
2022/06/12 11:22:38;;;;;;;1.63;1.52;;;;;;;38.20;25.21;99319.47;5077322;28;41234;-82
2022/06/12 11:25:21;;;;;;;1.40;1.27;;;;;;;37.67;25.30;99321.16;5092652;28;41117;-82
2022/06/12 11:28:02;;;;;;;1.70;1.33;;;;;;;37.26;25.77;99315.13;5077151;28;40616;-81
2022/06/12 11:30:41;;;;;;;1.40;1.30;;;;;;;37.44;26.02;99304.84;5091380;28;42750;-78
2022/06/12 11:33:33;;;;;;;1.20;1.20;;;;;;;37.01;25.77;99295.47;5077066;28;40871;-77
2022/06/12 11:36:12;;;;;;;1.97;1.40;;;;;;;36.65;25.68;99303.25;5095622;28;39965;-78
2022/06/12 11:38:55;;;;;;;1.40;1.30;;;;;;;36.95;26.25;99289.06;5093842;28;42341;-76
2022/06/12 11:41:38;;;;;;;1.67;1.57;;;;;;;37.54;24.76;99288.38;5092090;28;43797;-78
2022/06/12 11:44:22;;;;;;;1.40;1.30;;;;;;;38.17;25.19;99297.84;5076843;28;40892;-75
2022/06/12 11:47:04;;;;;;;1.33;1.30;;;;;;;38.54;24.68;99270.19;5093958;28;39088;-79
2022/06/12 11:49:42;;;;;;;1.47;1.40;;;;;;;38.28;24.21;99305.97;5093157;28;40718;-81
2022/06/12 11:52:37;;;;;;;3.57;1.70;;;;;;;37.61;24.21;99300.88;5077321;28;42048;-80
2022/06/12 11:55:24;;;;;;;1.83;1.27;;;;;;;37.54;25.29;99291.13;5094191;28;41539;-78
2022/06/12 11:58:01;;;;;;;1.50;1.40;;;;;;;38.19;25.28;99284.59;5092510;28;40907;-78
2022/06/12 12:00:36;;;;;;;1.50;1.40;;;;;;;38.46;24.62;99285.31;5077185;28;41670;-80
2022/06/12 12:03:22;;;;;;;2.60;1.70;;;;;;;38.95;24.13;99287.84;5093456;28;41267;-77
2022/06/12 12:06:04;;;;;;;1.30;1.20;;;;;;;39.27;24.26;99285.78;5090694;28;42220;-80
2022/06/12 12:08:50;;;;;;;1.55;1.45;;;;;;;40.58;22.39;99287.00;5093851;28;39074;-79
2022/06/12 12:11:25;;;;;;;1.40;1.30;;;;;;;42.37;21.33;99294.13;5091661;28;41842;-81
2022/06/12 12:13:56;;;;;;;1.40;1.23;;;;;;;43.96;20.72;99303.81;5092221;28;42655;-84
2022/06/12 12:16:32;;;;;;;1.70;1.60;;;;;;;45.32;18.82;99304.38;5092642;28;41032;-82